Time;durP1;ratioP1;P1;durP2;ratioP2;P2;SDS_P1;SDS_P2;PMS_P1;PMS_P2;Temp;Humidity;BMP_temperature;BMP_pressure;BME280_temperature;BME280_humidity;BME280_pressure;Samples;Min_cycle;Max_cycle;Signal;HPM_P1;HPM_P2
2022/11/07 00:02:43;;;;;;;6.28;2.03;;;13.90;99.90;;;;;;10458657;28;20083;-25
2022/11/07 00:07:45;;;;;;;2.72;1.08;;;14.20;99.90;;;;;;10447177;28;20045;-24
2022/11/07 00:12:48;;;;;;;7.13;2.00;;;15.00;99.90;;;;;;10450729;28;20144;-25
2022/11/07 00:17:50;;;;;;;6.68;1.55;;;14.10;99.90;;;;;;10449673;28;20353;-23
2022/11/07 00:22:52;;;;;;;5.60;1.57;;;14.20;99.90;;;;;;10455739;28;20118;-24
2022/11/07 00:27:55;;;;;;;5.63;1.50;;;14.30;99.90;;;;;;10441631;28;20045;-24
2022/11/07 00:32:57;;;;;;;5.13;1.60;;;14.00;99.90;;;;;;10449177;28;20486;-24
2022/11/07 00:37:59;;;;;;;5.63;1.20;;;14.90;99.90;;;;;;10457996;28;20056;-23
2022/11/07 00:43:02;;;;;;;10.30;1.67;;;13.70;99.90;;;;;;10463411;28;20114;-23
2022/11/07 00:48:04;;;;;;;8.73;1.60;;;13.60;99.90;;;;;;10460439;28;20072;-24
2022/11/07 00:53:06;;;;;;;9.23;1.85;;;14.10;99.90;;;;;;10440060;28;20049;-25
2022/11/07 00:58:10;;;;;;;11.00;2.30;;;14.10;99.90;;;;;;10462457;28;20502;-25
2022/11/07 01:08:31;;;;;;;4.93;1.60;;;13.70;99.90;;;;;;10450347;28;20052;-24
2022/11/07 01:13:36;;;;;;;9.48;1.65;;;14.30;99.90;;;;;;10446078;28;20102;-22
2022/11/07 01:18:38;;;;;;;6.20;1.40;;;14.70;99.90;;;;;;10454804;28;20750;-24
2022/11/07 01:23:40;;;;;;;1.90;1.10;;;14.60;99.90;;;;;;10456767;28;20085;-22
2022/11/07 01:28:43;;;;;;;9.27;2.23;;;15.10;99.90;;;;;;10458768;28;20053;-24
2022/11/07 01:33:46;;;;;;;7.63;1.77;;;14.30;99.90;;;;;;10454092;28;20045;-25
2022/11/07 01:38:48;;;;;;;8.18;1.85;;;14.60;99.90;;;;;;10456149;28;20772;-22
2022/11/07 01:43:58;;;;;;;4.50;1.10;;;14.10;99.90;;;;;;10447519;28;20075;-22
2022/11/07 01:49:07;;;;;;;7.55;1.77;;;14.20;99.90;;;;;;10439812;28;20190;-23
2022/11/07 01:54:09;;;;;;;10.77;2.40;;;14.30;99.90;;;;;;10454489;28;20076;-25
2022/11/07 01:59:15;;;;;;;;;;;14.50;99.90;;;;;;10454804;28;20136;-24
2022/11/07 02:04:19;;;;;;;5.72;1.40;;;15.10;99.90;;;;;;10460913;28;19982;-24
2022/11/07 02:09:22;;;;;;;11.40;1.42;;;15.70;97.50;;;;;;10458647;28;20049;-23
2022/11/07 02:14:25;;;;;;;8.17;1.83;;;14.40;99.90;;;;;;10436977;28;20045;-25
2022/11/07 02:19:34;;;;;;;12.38;2.10;;;13.80;99.90;;;;;;10443774;28;20056;-27
2022/11/07 02:24:38;;;;;;;11.98;2.00;;;14.10;99.90;;;;;;10456145;28;20486;-26
2022/11/07 02:29:43;;;;;;;11.70;2.10;;;14.20;99.90;;;;;;10449908;28;20076;-24
2022/11/07 02:34:45;;;;;;;6.38;1.73;;;13.30;99.90;;;;;;10459707;28;20197;-24
2022/11/07 02:39:48;;;;;;;13.33;2.07;;;13.10;99.90;;;;;;10459064;28;20517;-24
2022/11/07 02:44:53;;;;;;;8.57;1.80;;;13.80;99.90;;;;;;10457081;28;20466;-25
2022/11/07 02:49:55;;;;;;;5.47;1.50;;;14.80;99.90;;;;;;10451306;28;20495;-25
2022/11/07 02:54:58;;;;;;;11.13;2.40;;;15.10;99.90;;;;;;10445759;28;20080;-25
2022/11/07 03:00:00;;;;;;;8.77;1.10;;;14.70;99.90;;;;;;10451501;28;20096;-24
2022/11/07 03:05:02;;;;;;;6.67;1.90;;;15.60;98.20;;;;;;10451913;28;20052;-24
2022/11/07 03:10:07;;;;;;;12.83;1.67;;;14.20;99.90;;;;;;10448880;28;20533;-23
2022/11/07 03:15:11;;;;;;;10.65;1.55;;;13.40;99.90;;;;;;10450123;28;20092;-24
2022/11/07 03:20:13;;;;;;;9.48;1.33;;;14.90;99.90;;;;;;10442775;28;20495;-25
2022/11/07 03:25:16;;;;;;;5.65;1.48;;;13.80;99.90;;;;;;10451219;28;20057;-25
2022/11/07 03:30:18;;;;;;;8.88;1.50;;;15.40;99.60;;;;;;10449855;28;20494;-24
2022/11/07 03:35:21;;;;;;;8.10;1.43;;;14.70;99.90;;;;;;10467882;28;20140;-23
2022/11/07 03:40:24;;;;;;;;;;;13.80;99.90;;;;;;10463096;28;20564;-24
2022/11/07 03:45:26;;;;;;;15.38;2.05;;;15.20;99.50;;;;;;10453003;28;19957;-24
2022/11/07 03:50:28;;;;;;;8.90;2.03;;;13.50;99.90;;;;;;10462932;28;20041;-24
2022/11/07 03:55:31;;;;;;;13.93;2.50;;;13.60;99.90;;;;;;10440036;28;20122;-23
2022/11/07 04:00:33;;;;;;;8.10;2.15;;;14.00;99.90;;;;;;10462871;28;20076;-23
2022/11/07 04:05:34;;;;;;;14.50;2.75;;;13.70;99.90;;;;;;10463862;28;20069;-25
2022/11/07 04:10:38;;;;;;;13.97;2.33;;;14.00;99.90;;;;;;10454839;28;20046;-25
2022/11/07 04:21:00;;;;;;;10.05;1.67;;;13.60;99.90;;;;;;10457786;28;20049;-24
2022/11/07 04:31:23;;;;;;;9.70;1.80;;;14.20;99.90;;;;;;10447880;28;20144;-24
2022/11/07 04:36:25;;;;;;;11.97;1.60;;;13.60;99.90;;;;;;10454506;28;20422;-25
2022/11/07 04:41:28;;;;;;;13.73;3.00;;;13.90;99.90;;;;;;10452532;28;20045;-24
2022/11/07 04:46:30;;;;;;;13.80;1.90;;;13.80;99.90;;;;;;10457110;28;20045;-25
2022/11/07 04:51:32;;;;;;;13.83;2.23;;;13.90;99.90;;;;;;10455022;28;20539;-25
2022/11/07 04:56:35;;;;;;;11.43;2.40;;;13.80;99.90;;;;;;10456984;28;20053;-24
2022/11/07 05:01:37;;;;;;;16.85;2.38;;;14.40;99.90;;;;;;10448321;28;20048;-24
2022/11/07 05:06:39;;;;;;;7.70;1.13;;;14.70;99.90;;;;;;10440328;28;20072;-24
2022/11/07 05:11:42;;;;;;;16.00;2.00;;;14.40;99.90;;;;;;10443978;28;20433;-24
2022/11/07 05:16:44;;;;;;;8.18;1.50;;;14.50;99.90;;;;;;10450654;28;20065;-25
2022/11/07 05:21:47;;;;;;;7.43;1.35;;;14.40;99.90;;;;;;10443206;28;20044;-24
2022/11/07 05:27:17;;;;;;;12.07;2.88;;;15.10;99.90;;;;;;10432494;28;20119;-23
2022/11/07 05:32:19;;;;;;;9.77;2.83;;;14.30;99.90;;;;;;10428603;28;20454;-22
2022/11/07 05:37:21;;;;;;;16.43;3.07;;;14.30;99.90;;;;;;10433497;28;20058;-23
2022/11/07 05:42:24;;;;;;;11.40;2.10;;;13.70;99.90;;;;;;10428679;28;20099;-23
2022/11/07 05:47:26;;;;;;;15.63;2.47;;;13.70;99.90;;;;;;10434284;28;20543;-23
2022/11/07 05:52:28;;;;;;;7.07;1.33;;;14.70;99.90;;;;;;10426025;28;20052;-26
2022/11/07 05:57:31;;;;;;;8.52;1.67;;;15.60;98.20;;;;;;10450060;28;20132;-24
2022/11/07 06:02:33;;;;;;;14.27;2.28;;;15.30;99.40;;;;;;10446719;28;20114;-23
2022/11/07 06:07:35;;;;;;;11.23;2.10;;;15.40;98.50;;;;;;10457200;28;20037;-24
2022/11/07 06:12:38;;;;;;;9.05;2.45;;;14.80;99.90;;;;;;10448250;28;20143;-23
2022/11/07 06:17:40;;;;;;;14.82;2.97;;;14.00;99.90;;;;;;10449194;28;20057;-24
2022/11/07 06:22:42;;;;;;;9.30;1.83;;;14.20;99.90;;;;;;10436983;28;20044;-24
2022/11/07 06:27:46;;;;;;;11.47;2.27;;;14.00;99.90;;;;;;10461243;28;20076;-30
2022/11/07 06:32:48;;;;;;;9.43;2.25;;;14.20;99.90;;;;;;10440775;28;20156;-24
2022/11/07 06:37:49;;;;;;;13.23;1.63;;;15.00;99.20;;;;;;10449249;28;20140;-23
2022/11/07 06:42:53;;;;;;;12.80;3.03;;;14.50;99.90;;;;;;10449655;28;20060;-24
2022/11/07 06:47:55;;;;;;;11.00;2.22;;;13.80;99.90;;;;;;10460580;28;20485;-25
2022/11/07 06:53:01;;;;;;;9.10;1.85;;;14.70;99.90;;;;;;10448083;28;20072;-24
2022/11/07 06:58:05;;;;;;;7.15;1.95;;;13.90;99.90;;;;;;10448778;28;20060;-24
2022/11/07 07:15:31;;;;;;;11.88;1.85;;;13.90;99.90;;;;;;10534290;27;20465;-25
2022/11/07 07:20:33;;;;;;;12.50;2.88;;;13.70;99.90;;;;;;10537016;28;20078;-25
2022/11/07 07:25:35;;;;;;;9.60;1.97;;;13.20;99.90;;;;;;10530170;28;20044;-25
2022/11/07 07:30:38;;;;;;;10.97;2.17;;;13.40;99.90;;;;;;10524736;28;20127;-26
2022/11/07 07:35:40;;;;;;;13.40;2.08;;;13.50;99.90;;;;;;10529615;28;20048;-24
2022/11/07 07:40:42;;;;;;;13.27;2.20;;;13.30;99.90;;;;;;10511599;28;20055;-23
2022/11/07 07:45:45;;;;;;;15.02;2.42;;;13.40;99.90;;;;;;10506153;28;20045;-26
2022/11/07 07:50:48;;;;;;;13.60;1.98;;;13.40;99.90;;;;;;10517440;28;20075;-24
2022/11/07 07:55:50;;;;;;;4.88;1.58;;;14.30;99.90;;;;;;10513855;28;20040;-23
2022/11/07 08:00:56;;;;;;;15.93;2.08;;;14.30;99.90;;;;;;10508918;28;20052;-24
2022/11/07 08:05:59;;;;;;;12.27;1.88;;;13.70;99.90;;;;;;10525622;28;20050;-26
2022/11/07 08:11:02;;;;;;;10.27;2.72;;;14.10;99.90;;;;;;10509656;28;20060;-25
2022/11/07 08:16:07;;;;;;;17.67;2.58;;;14.70;99.90;;;;;;10516318;28;20059;-24
2022/11/07 08:21:09;;;;;;;11.50;2.00;;;13.70;99.90;;;;;;10499616;28;20178;-23
2022/11/07 08:26:11;;;;;;;8.03;1.97;;;14.00;99.90;;;;;;10499978;28;20409;-23
2022/11/07 08:31:14;;;;;;;15.63;1.80;;;13.70;99.90;;;;;;10504415;28;20048;-27
2022/11/07 08:36:16;;;;;;;21.50;2.10;;;14.50;99.90;;;;;;10512702;28;20133;-24
2022/11/07 08:41:19;;;;;;;12.95;1.85;;;13.70;99.90;;;;;;10477209;28;20119;-25
2022/11/07 08:46:22;;;;;;;13.95;2.40;;;13.90;99.90;;;;;;10486439;28;20469;-24
2022/11/07 08:51:24;;;;;;;9.32;2.20;;;13.80;99.90;;;;;;10487418;28;20091;-24
2022/11/07 08:56:26;;;;;;;12.10;1.93;;;13.60;99.90;;;;;;10487557;28;20167;-24
2022/11/07 09:01:29;;;;;;;16.73;2.20;;;14.20;99.90;;;;;;10478190;28;20075;-26
2022/11/07 09:06:32;;;;;;;11.13;2.13;;;14.30;99.90;;;;;;10480107;28;20053;-24
2022/11/07 09:11:34;;;;;;;8.98;1.92;;;15.50;99.80;;;;;;10482061;28;20518;-24
2022/11/07 09:16:37;;;;;;;18.63;2.80;;;14.20;99.90;;;;;;10470216;28;20045;-25
2022/11/07 09:21:39;;;;;;;9.77;1.80;;;14.00;99.90;;;;;;10481331;28;20555;-24
2022/11/07 09:26:41;;;;;;;8.00;1.77;;;14.10;99.90;;;;;;10497077;28;20072;-24
2022/11/07 09:31:45;;;;;;;19.90;3.47;;;14.40;99.90;;;;;;10493743;28;20098;-24
2022/11/07 09:36:47;;;;;;;6.88;1.65;;;14.70;99.90;;;;;;10495713;28;20511;-24
2022/11/07 09:41:58;;;;;;;16.77;2.53;;;15.30;99.90;;;;;;10496310;28;20452;-23
2022/11/07 09:47:07;;;;;;;14.90;3.55;;;14.60;99.90;;;;;;10483395;28;20478;-24
2022/11/07 09:52:15;;;;;;;10.75;1.83;;;14.30;99.90;;;;;;10499181;28;20450;-25
2022/11/07 09:57:19;;;;;;;8.40;1.30;;;14.70;99.90;;;;;;10488977;28;20201;-24
2022/11/07 10:02:25;;;;;;;15.82;2.58;;;15.00;99.90;;;;;;10493815;28;20056;-25
2022/11/07 10:07:36;;;;;;;13.57;2.08;;;14.60;99.90;;;;;;10489186;28;20045;-24
2022/11/07 10:12:54;;;;;;;8.40;1.98;;;15.20;99.90;;;;;;10482257;28;20060;-25
2022/11/07 10:18:05;;;;;;;24.90;2.95;;;15.60;99.20;;;;;;10480081;28;20428;-26
2022/11/07 10:23:23;;;;;;;13.65;2.13;;;15.00;99.90;;;;;;10506873;28;20139;-25
2022/11/07 10:28:26;;;;;;;16.15;2.60;;;16.00;97.80;;;;;;10475487;28;20409;-22
2022/11/07 10:33:38;;;;;;;17.20;1.92;;;15.10;99.90;;;;;;10473255;28;20052;-25
2022/11/07 10:38:42;;;;;;;8.18;1.70;;;14.80;99.90;;;;;;10468889;28;20098;-24
2022/11/07 10:43:48;;;;;;;11.70;2.10;;;14.60;99.90;;;;;;10485467;28;20375;-23
2022/11/07 10:48:53;;;;;;;11.52;2.28;;;14.70;99.90;;;;;;10500398;28;20151;-24
2022/11/07 10:53:55;;;;;;;16.83;2.33;;;15.30;99.90;;;;;;10498500;28;20557;-23
2022/11/07 10:58:58;;;;;;;7.17;2.23;;;14.50;99.90;;;;;;10502004;28;20045;-28
2022/11/07 11:04:01;;;;;;;;;;;16.20;97.60;;;;;;10494376;28;20044;-25
2022/11/07 11:09:14;;;;;;;12.55;2.05;;;15.20;99.90;;;;;;10516584;28;20428;-25
2022/11/07 11:14:21;;;;;;;8.50;2.42;;;15.00;99.90;;;;;;10498579;28;20488;-23
2022/11/07 11:19:26;;;;;;;12.50;3.13;;;15.10;99.90;;;;;;10500227;28;20101;-23
2022/11/07 11:24:34;;;;;;;12.75;1.73;;;16.10;99.90;;;;;;10494477;28;20048;-27
2022/11/07 11:29:41;;;;;;;16.13;2.00;;;15.80;99.90;;;;;;10499544;28;20055;-25
2022/11/07 11:34:53;;;;;;;14.73;2.63;;;15.60;99.90;;;;;;10516475;28;20052;-24
2022/11/07 11:40:08;;;;;;;10.03;1.97;;;14.90;99.90;;;;;;10484756;28;20250;-25
2022/11/07 11:45:19;;;;;;;11.18;1.45;;;15.50;99.90;;;;;;10483472;28;20056;-24
2022/11/07 11:50:28;;;;;;;11.60;2.38;;;15.40;99.90;;;;;;10471690;28;20088;-25
2022/11/07 11:55:38;;;;;;;12.02;2.47;;;15.60;99.90;;;;;;10495084;28;20045;-23
2022/11/07 12:00:46;;;;;;;14.13;1.88;;;15.00;99.90;;;;;;10488485;28;20076;-25
2022/11/07 12:06:11;;;;;;;10.63;2.22;;;15.60;99.90;;;;;;10490759;28;20136;-25
2022/11/07 12:11:21;;;;;;;10.48;3.22;;;15.90;99.40;;;;;;10485680;28;20052;-25
2022/11/07 12:16:32;;;;;;;16.83;2.92;;;15.50;99.90;;;;;;10488480;28;20048;-25
2022/11/07 12:21:47;;;;;;;7.97;1.67;;;16.40;98.60;;;;;;10482004;28;20065;-28
2022/11/07 12:26:56;;;;;;;4.43;1.20;;;16.00;99.90;;;;;;10503072;28;20094;-25
2022/11/07 12:32:11;;;;;;;17.25;2.78;;;16.70;95.90;;;;;;10478195;28;20098;-24
2022/11/07 12:37:32;;;;;;;10.20;2.05;;;17.20;94.60;;;;;;10493670;28;20076;-24
2022/11/07 12:42:48;;;;;;;15.07;2.13;;;15.50;99.90;;;;;;10501058;28;20045;-24
2022/11/07 12:48:23;;;;;;;7.47;1.58;;;15.20;99.90;;;;;;10503176;28;20063;-24
2022/11/07 12:53:39;;;;;;;6.32;1.15;;;16.30;98.40;;;;;;10488405;28;20044;-26
2022/11/07 12:58:43;;;;;;;8.13;1.42;;;17.20;95.40;;;;;;10497838;28;20080;-24
2022/11/07 13:03:59;;;;;;;9.13;1.90;;;16.70;96.40;;;;;;10499531;28;20568;-24
2022/11/07 13:09:13;;;;;;;16.65;2.67;;;17.10;96.40;;;;;;10498959;28;20449;-23
2022/11/07 13:14:26;;;;;;;9.45;2.35;;;16.10;99.90;;;;;;10495396;28;20052;-24
2022/11/07 13:19:30;;;;;;;5.93;1.73;;;17.00;95.70;;;;;;10489817;28;20044;-26
2022/11/07 13:24:38;;;;;;;16.70;2.08;;;17.00;97.50;;;;;;10506342;28;20114;-25
2022/11/07 13:29:43;;;;;;;8.68;1.33;;;16.50;99.20;;;;;;10490008;28;20040;-26
2022/11/07 13:34:49;;;;;;;9.70;2.33;;;16.70;98.10;;;;;;10473793;28;20107;-25
2022/11/07 13:39:56;;;;;;;13.82;2.25;;;16.60;99.90;;;;;;10485535;28;20045;-26
2022/11/07 13:45:18;;;;;;;9.15;2.00;;;16.50;99.90;;;;;;10474628;28;20436;-24
2022/11/07 13:50:22;;;;;;;;;;;16.70;99.10;;;;;;10487756;28;20049;-25
2022/11/07 13:55:31;;;;;;;7.93;2.10;;;16.10;99.90;;;;;;10489118;28;19924;-25
2022/11/07 14:00:33;;;;;;;3.75;0.80;;;16.40;99.90;;;;;;10473083;28;20449;-25
2022/11/07 14:05:37;;;;;;;7.40;1.30;;;16.60;99.90;;;;;;10463902;28;20057;-26
2022/11/07 14:10:45;;;;;;;4.25;1.10;;;18.10;95.50;;;;;;10468970;28;20087;-25
2022/11/07 14:15:51;;;;;;;6.63;1.20;;;18.60;92.80;;;;;;10472844;28;20052;-26
2022/11/07 14:20:55;;;;;;;8.90;1.67;;;18.80;92.10;;;;;;10489573;28;20040;-25
2022/11/07 14:26:00;;;;;;;11.98;2.35;;;17.60;95.80;;;;;;10487182;28;20044;-25
2022/11/07 14:31:04;;;;;;;9.40;1.48;;;18.10;94.30;;;;;;10491173;28;20405;-26
2022/11/07 14:36:06;;;;;;;9.20;1.55;;;17.80;95.80;;;;;;10501550;28;20090;-24
2022/11/07 14:41:12;;;;;;;3.50;0.80;;;17.70;96.20;;;;;;10508301;28;20045;-24
2022/11/07 14:46:19;;;;;;;7.32;1.67;;;18.70;92.60;;;;;;10488088;28;20433;-25
2022/11/07 14:51:23;;;;;;;8.57;1.00;;;18.50;92.90;;;;;;10488810;28;20132;-24
2022/11/07 14:56:31;;;;;;;4.53;0.95;;;18.80;91.90;;;;;;10483274;28;20044;-23
2022/11/07 15:01:34;;;;;;;5.18;1.10;;;18.50;93.20;;;;;;10467561;28;20053;-24
2022/11/07 15:06:43;;;;;;;10.05;1.75;;;18.10;95.00;;;;;;10476128;28;20538;-25
2022/11/07 15:11:57;;;;;;;9.43;1.85;;;18.50;93.20;;;;;;10467633;28;20044;-25
2022/11/07 15:17:02;;;;;;;6.80;1.35;;;18.40;93.90;;;;;;10462692;28;20133;-25
2022/11/07 15:22:05;;;;;;;6.03;1.20;;;18.90;92.00;;;;;;10471459;28;20142;-25
2022/11/07 15:27:19;;;;;;;7.97;1.83;;;18.80;92.00;;;;;;10468157;28;20095;-25
2022/11/07 15:32:23;;;;;;;7.05;1.73;;;18.80;92.50;;;;;;10478567;28;20068;-27
2022/11/07 15:37:26;;;;;;;9.25;1.83;;;18.90;92.30;;;;;;10487959;28;20063;-25
2022/11/07 15:42:29;;;;;;;3.85;1.10;;;18.50;93.00;;;;;;10498406;28;20052;-24
2022/11/07 15:47:31;;;;;;;4.85;0.93;;;19.00;92.10;;;;;;10488411;28;20448;-25
2022/11/07 15:52:33;;;;;;;6.25;1.38;;;18.90;92.20;;;;;;10496429;28;20110;-27
2022/11/07 15:57:37;;;;;;;3.92;1.27;;;18.40;93.90;;;;;;10496591;28;20067;-26
2022/11/07 16:02:39;;;;;;;4.88;1.30;;;18.60;93.30;;;;;;10495940;28;20056;-24
2022/11/07 16:07:42;;;;;;;5.18;1.23;;;18.50;93.80;;;;;;10484816;28;20071;-27
2022/11/07 16:12:45;;;;;;;6.45;1.20;;;18.40;94.20;;;;;;10494589;28;20065;-26
2022/11/07 16:17:47;;;;;;;6.53;1.50;;;18.20;94.70;;;;;;10493859;28;20056;-26
2022/11/07 16:22:51;;;;;;;8.93;1.98;;;18.40;94.30;;;;;;10498954;28;20052;-25
2022/11/07 16:28:02;;;;;;;11.38;3.13;;;18.60;93.30;;;;;;10481235;28;20500;-26
2022/11/07 16:33:05;;;;;;;5.28;1.63;;;17.50;96.10;;;;;;10495779;28;20133;-25
2022/11/07 16:38:23;;;;;;;7.45;1.88;;;18.10;94.90;;;;;;10489694;28;20060;-25
2022/11/07 16:43:26;;;;;;;9.52;1.33;;;17.60;96.20;;;;;;10504856;28;20374;-26
2022/11/07 16:48:30;;;;;;;5.22;1.30;;;18.30;94.50;;;;;;10500217;28;20075;-25
2022/11/07 16:53:32;;;;;;;6.03;1.05;;;18.20;95.50;;;;;;10491523;28;20055;-24
2022/11/07 16:58:53;;;;;;;3.30;1.23;;;19.00;92.30;;;;;;10480325;28;20094;-27
2022/11/07 17:04:11;;;;;;;14.87;3.10;;;18.50;93.70;;;;;;10495904;28;20417;-23
2022/11/07 17:09:19;;;;;;;10.63;1.50;;;18.50;93.50;;;;;;10466140;28;20056;-25
2022/11/07 17:14:24;;;;;;;5.57;1.10;;;18.60;93.50;;;;;;10472970;28;20060;-26
2022/11/07 17:19:27;;;;;;;7.20;1.58;;;18.20;93.90;;;;;;10486070;28;20076;-25
2022/11/07 17:24:29;;;;;;;16.60;2.35;;;18.90;92.80;;;;;;10476074;28;20139;-26
2022/11/07 17:29:32;;;;;;;5.40;1.15;;;19.00;92.20;;;;;;10481795;28;20094;-27
2022/11/07 17:34:34;;;;;;;8.68;1.63;;;18.40;94.30;;;;;;10487302;28;20048;-25
2022/11/07 17:39:36;;;;;;;7.97;1.65;;;18.60;93.80;;;;;;10485090;28;20414;-27
2022/11/07 17:44:40;;;;;;;3.63;1.52;;;18.60;93.30;;;;;;10498747;28;20056;-26
2022/11/07 17:49:42;;;;;;;11.63;2.58;;;18.50;94.20;;;;;;10480651;28;20122;-25
2022/11/07 17:54:44;;;;;;;5.25;1.88;;;18.00;93.90;;;;;;10498476;28;20052;-25
2022/11/07 17:59:49;;;;;;;8.70;1.70;;;18.30;94.60;;;;;;10482648;28;20072;-25
2022/11/07 18:04:50;;;;;;;7.20;2.00;;;17.80;94.70;;;;;;10494267;28;20044;-25
2022/11/07 18:09:53;;;;;;;8.48;2.00;;;17.10;97.60;;;;;;10496069;28;20136;-25
2022/11/07 18:14:57;;;;;;;5.85;2.00;;;17.30;97.20;;;;;;10488658;28;20087;-27
2022/11/07 18:19:59;;;;;;;10.00;2.30;;;17.40;98.00;;;;;;10467903;28;20123;-24
2022/11/07 18:25:01;;;;;;;;;;;17.80;95.30;;;;;;10477975;28;20504;-27
2022/11/07 18:30:05;;;;;;;7.63;2.70;;;17.10;98.10;;;;;;10480178;28;19950;-27
2022/11/07 18:35:07;;;;;;;11.65;2.45;;;17.40;98.10;;;;;;10487201;28;20087;-25
2022/11/07 18:40:10;;;;;;;6.18;1.45;;;16.70;99.70;;;;;;10478450;28;20405;-25
2022/11/07 18:45:14;;;;;;;9.25;2.50;;;17.30;98.60;;;;;;10496927;28;20067;-25
2022/11/07 18:50:16;;;;;;;7.30;1.70;;;17.00;98.80;;;;;;10496617;28;20048;-26
2022/11/07 18:55:18;;;;;;;7.43;1.83;;;16.60;99.70;;;;;;10489277;28;20052;-29
2022/11/07 19:00:21;;;;;;;8.03;2.23;;;17.20;98.60;;;;;;10472634;28;20052;-25
2022/11/07 19:05:23;;;;;;;7.63;2.00;;;17.80;96.90;;;;;;10480924;28;20048;-27
2022/11/07 19:10:25;;;;;;;9.97;1.87;;;17.80;96.80;;;;;;10487509;28;20048;-27
2022/11/07 19:15:30;;;;;;;13.13;1.77;;;18.20;95.30;;;;;;10481160;28;20097;-26
2022/11/07 19:20:32;;;;;;;10.27;1.80;;;17.90;95.00;;;;;;10481601;28;20037;-25
2022/11/07 19:25:37;;;;;;;5.45;1.60;;;17.50;98.20;;;;;;10489391;28;20049;-26
2022/11/07 19:30:41;;;;;;;13.55;1.70;;;18.00;96.90;;;;;;10488099;28;20040;-26
2022/11/07 19:35:43;;;;;;;10.82;1.50;;;17.70;97.20;;;;;;10490894;28;20052;-25
2022/11/07 19:40:48;;;;;;;10.87;2.27;;;17.70;97.70;;;;;;10485574;28;20482;-25
2022/11/07 19:45:52;;;;;;;10.50;1.85;;;18.10;96.00;;;;;;10479612;28;20072;-26
2022/11/07 19:50:54;;;;;;;9.05;2.05;;;18.30;95.90;;;;;;10487054;28;20040;-25
2022/11/07 19:55:56;;;;;;;10.70;1.80;;;18.70;94.60;;;;;;10473740;28;20080;-24
2022/11/07 20:00:59;;;;;;;9.48;1.70;;;18.90;92.50;;;;;;10481005;28;20048;-26
2022/11/07 20:06:02;;;;;;;12.57;2.17;;;18.70;92.10;;;;;;10487754;28;20080;-27
2022/11/07 20:11:05;;;;;;;7.13;1.92;;;18.60;94.20;;;;;;10486802;28;20396;-31
2022/11/07 20:16:09;;;;;;;7.03;1.60;;;19.40;92.20;;;;;;10478369;28;20084;-26
2022/11/07 20:21:13;;;;;;;11.70;2.15;;;19.10;92.70;;;;;;10486590;28;20052;-26
2022/11/07 20:26:17;;;;;;;13.77;1.52;;;19.20;92.50;;;;;;10481084;28;20149;-26
2022/11/07 20:31:24;;;;;;;9.95;2.05;;;19.50;91.20;;;;;;10491248;28;20056;-25
2022/11/07 20:36:26;;;;;;;10.38;1.77;;;19.00;93.00;;;;;;10494413;28;20484;-26
2022/11/07 20:41:28;;;;;;;13.77;2.15;;;19.50;91.00;;;;;;10493807;28;20520;-25
2022/11/07 20:46:33;;;;;;;15.05;2.20;;;19.20;91.60;;;;;;10479414;28;20554;-24
2022/11/07 20:51:35;;;;;;;6.72;1.50;;;18.90;93.00;;;;;;10487454;28;20037;-25
2022/11/07 20:56:38;;;;;;;15.65;2.17;;;18.40;93.70;;;;;;10474510;28;20097;-24
2022/11/07 21:01:42;;;;;;;12.05;1.98;;;18.30;94.80;;;;;;10491426;28;20036;-25
2022/11/07 21:06:44;;;;;;;11.80;2.35;;;19.00;92.30;;;;;;10494357;28;20041;-25
2022/11/07 21:11:46;;;;;;;10.35;1.90;;;18.30;94.60;;;;;;10485133;28;20159;-27
2022/11/07 21:16:50;;;;;;;9.18;2.00;;;18.50;93.50;;;;;;10488370;28;20828;-28
2022/11/07 21:21:52;;;;;;;6.45;1.70;;;19.00;92.00;;;;;;10486363;28;20048;-23
2022/11/07 21:26:54;;;;;;;13.35;2.08;;;19.30;91.70;;;;;;10503791;28;20086;-27
2022/11/07 21:31:57;;;;;;;10.77;2.35;;;19.50;90.50;;;;;;10501862;28;20477;-25
2022/11/07 21:36:59;;;;;;;11.50;1.90;;;19.90;89.50;;;;;;10496361;28;20051;-25
2022/11/07 21:42:01;;;;;;;10.13;1.67;;;19.80;90.10;;;;;;10496398;28;20501;-24
2022/11/07 21:47:05;;;;;;;11.32;2.05;;;19.90;89.60;;;;;;10494208;28;20052;-25
2022/11/07 21:52:07;;;;;;;12.20;1.85;;;19.50;91.40;;;;;;10491078;28;20048;-24
2022/11/07 21:57:09;;;;;;;7.60;2.50;;;19.60;89.40;;;;;;10506053;28;20088;-25
2022/11/07 22:02:13;;;;;;;7.15;1.98;;;18.80;92.70;;;;;;10496035;28;20481;-25
2022/11/07 22:07:15;;;;;;;9.07;1.55;;;19.00;91.80;;;;;;10487630;28;20537;-24
2022/11/07 22:12:17;;;;;;;10.20;2.13;;;19.50;90.60;;;;;;10478729;28;20060;-25
2022/11/07 22:17:20;;;;;;;10.45;2.15;;;19.40;90.40;;;;;;10487364;28;20160;-23
2022/11/07 22:22:22;;;;;;;11.38;1.60;;;19.30;91.40;;;;;;10492856;28;20090;-24
2022/11/07 22:27:24;;;;;;;12.18;1.77;;;18.80;92.20;;;;;;10474766;28;20056;-27
2022/11/07 22:32:27;;;;;;;11.15;2.00;;;19.70;90.20;;;;;;10475143;28;20542;-26
2022/11/07 22:37:30;;;;;;;5.97;1.65;;;19.70;90.00;;;;;;10479048;28;21700;-28
2022/11/07 22:42:32;;;;;;;9.40;2.15;;;19.60;90.30;;;;;;10477277;28;20131;-26
2022/11/07 22:47:35;;;;;;;12.07;1.75;;;19.20;91.30;;;;;;10469298;28;20131;-23
2022/11/07 22:52:37;;;;;;;5.95;1.30;;;19.50;90.80;;;;;;10476552;28;20057;-25
2022/11/07 22:57:39;;;;;;;10.90;1.85;;;19.30;91.10;;;;;;10484051;28;20048;-25
2022/11/07 23:02:43;;;;;;;4.13;1.30;;;18.40;93.60;;;;;;10485632;28;20465;-26
2022/11/07 23:07:44;;;;;;;12.40;2.08;;;19.10;91.50;;;;;;10490050;28;20036;-24
2022/11/07 23:12:46;;;;;;;4.93;1.65;;;18.50;93.20;;;;;;10482977;28;20058;-25
2022/11/07 23:17:50;;;;;;;8.55;1.58;;;19.50;89.10;;;;;;10493643;28;20088;-25
2022/11/07 23:22:51;;;;;;;4.00;1.33;;;19.10;90.30;;;;;;10507771;28;20071;-24
2022/11/07 23:27:53;;;;;;;5.15;1.65;;;19.10;91.00;;;;;;10484257;28;20091;-25
2022/11/07 23:32:57;;;;;;;4.90;1.33;;;19.60;89.20;;;;;;10477252;28;20087;-25
2022/11/07 23:37:58;;;;;;;7.30;1.25;;;19.60;89.10;;;;;;10494746;28;20509;-25
2022/11/07 23:43:00;;;;;;;9.43;1.30;;;19.50;89.70;;;;;;10486088;28;20048;-22
